Time;durP1;ratioP1;P1;durP2;ratioP2;P2;SDS_P1;SDS_P2;PMS_P1;PMS_P2;Temp;Humidity;BMP_temperature;BMP_pressure;BME280_temperature;BME280_humidity;BME280_pressure;Samples;Min_cycle;Max_cycle;Signal;HPM_P1;HPM_P2
2023/11/18 00:03:11;;;;;;;0.82;0.82;;;;;;;6.48;100.00;102277.09;10354215;28;20049;-70
2023/11/18 00:08:12;;;;;;;2.75;2.65;;;;;;;6.39;100.00;102280.59;10372771;28;20116;-72
2023/11/18 00:13:14;;;;;;;0.43;0.43;;;;;;;6.26;100.00;102275.44;10372156;28;20120;-70
2023/11/18 00:18:14;;;;;;;0.77;0.77;;;;;;;6.09;100.00;102259.94;10339414;28;20029;-70
2023/11/18 00:23:15;;;;;;;3.30;1.65;;;;;;;5.97;100.00;102271.78;10354522;28;20064;-70
2023/11/18 00:28:15;;;;;;;0.52;0.52;;;;;;;5.91;100.00;102270.44;10371158;28;20061;-70
2023/11/18 00:33:15;;;;;;;0.63;0.63;;;;;;;5.91;100.00;102277.66;10353688;28;20065;-70
2023/11/18 00:38:17;;;;;;;0.52;0.52;;;;;;;6.00;100.00;102280.44;10368803;28;20045;-70
2023/11/18 00:43:18;;;;;;;1.05;1.05;;;;;;;6.14;100.00;102291.81;10368675;28;20041;-70
2023/11/18 00:48:18;;;;;;;0.57;0.57;;;;;;;6.27;100.00;102279.00;10352214;28;20120;-71
2023/11/18 00:53:20;;;;;;;15.77;3.03;;;;;;;6.39;100.00;102280.59;10369046;28;20064;-70
2023/11/18 00:58:20;;;;;;;1.70;1.70;;;;;;;6.46;100.00;102283.59;10367923;28;20081;-70
2023/11/18 01:03:21;;;;;;;1.77;1.77;;;;;;;6.48;100.00;102287.84;10369659;28;20046;-70
2023/11/18 01:08:21;;;;;;;1.02;1.02;;;;;;;6.48;100.00;102287.00;10369785;28;20041;-70
2023/11/18 01:13:21;;;;;;;0.63;0.63;;;;;;;6.50;100.00;102285.00;10352569;28;20060;-70
2023/11/18 01:18:22;;;;;;;0.93;0.93;;;;;;;6.52;100.00;102280.34;10370269;28;20034;-70
2023/11/18 01:23:25;;;;;;;0.70;0.70;;;;;;;6.52;100.00;102288.44;10369667;28;20038;-70
2023/11/18 01:28:28;;;;;;;0.55;0.55;;;;;;;6.52;100.00;102297.34;10372005;28;20518;-70
2023/11/18 01:33:29;;;;;;;4.03;1.35;;;;;;;6.55;100.00;102303.47;10368734;28;20034;-70
2023/11/18 01:38:30;;;;;;;0.65;0.65;;;;;;;6.55;100.00;102293.53;10368918;28;20068;-70
2023/11/18 01:43:31;;;;;;;1.67;1.20;;;;;;;6.55;100.00;102308.84;10369300;28;20037;-70
2023/11/18 01:48:34;;;;;;;0.80;0.80;;;;;;;6.52;100.00;102305.44;10369163;28;20034;-71
2023/11/18 01:53:36;;;;;;;2.83;2.05;;;;;;;6.55;100.00;102298.06;10352294;28;20046;-70
2023/11/18 01:58:37;;;;;;;1.60;1.60;;;;;;;6.52;100.00;102297.34;10352581;28;20050;-70
2023/11/18 02:03:42;;;;;;;2.80;2.70;;;;;;;6.55;100.00;102307.00;10359139;28;20133;-70
2023/11/18 02:08:43;;;;;;;0.57;0.57;;;;;;;6.57;100.00;102312.22;10392789;28;20216;-70
2023/11/18 02:13:44;;;;;;;0.68;0.68;;;;;;;6.56;100.00;102305.16;10360620;28;20063;-71
2023/11/18 02:18:45;;;;;;;1.90;1.83;;;;;;;6.56;100.00;102300.63;10358322;28;20486;-70
2023/11/18 02:23:46;;;;;;;3.08;2.95;;;;;;;6.56;100.00;102281.78;10358284;28;20165;-70
2023/11/18 02:28:46;;;;;;;1.75;1.75;;;;;;;6.59;100.00;102277.97;10357864;28;20048;-70
2023/11/18 02:34:15;;;;;;;1.00;1.00;;;;;;;6.59;100.00;102272.59;10375913;28;20113;-70
2023/11/18 02:39:38;;;;;;;1.45;1.45;;;;;;;6.58;100.00;102268.19;10371367;28;20041;-71
2023/11/18 02:44:39;;;;;;;0.90;0.90;;;;;;;6.60;100.00;102272.44;10374434;28;20036;-70
2023/11/18 02:49:39;;;;;;;0.75;0.75;;;;;;;6.59;100.00;102251.06;10357518;28;20038;-70
2023/11/18 02:54:39;;;;;;;0.80;0.80;;;;;;;6.58;100.00;102255.59;10341658;28;20129;-70
2023/11/18 02:59:40;;;;;;;0.50;0.50;;;;;;;6.64;100.00;102248.81;10356154;28;20133;-71
2023/11/18 03:04:44;;;;;;;2.03;1.92;;;;;;;6.59;100.00;102246.50;10374411;28;20476;-71
2023/11/18 03:09:46;;;;;;;0.50;0.50;;;;;;;6.60;100.00;102232.06;10356668;28;20113;-70
2023/11/18 03:14:47;;;;;;;0.90;0.90;;;;;;;6.61;100.00;102232.94;10357652;28;20193;-71
2023/11/18 03:19:50;;;;;;;1.67;1.67;;;;;;;6.53;100.00;102225.53;10356784;28;20054;-71
2023/11/18 03:24:50;;;;;;;2.38;2.20;;;;;;;6.56;100.00;102208.25;10373880;28;20042;-70
2023/11/18 03:29:51;;;;;;;0.50;0.50;;;;;;;6.45;100.00;102193.09;10373495;28;20065;-70
2023/11/18 03:34:51;;;;;;;0.70;0.70;;;;;;;6.55;100.00;102185.88;10372614;28;20141;-70
2023/11/18 03:39:52;;;;;;;0.50;0.50;;;;;;;6.57;100.00;102166.91;10371357;28;20115;-70
2023/11/18 03:44:52;;;;;;;1.05;1.05;;;;;;;6.49;100.00;102173.84;10371336;28;20048;-70
2023/11/18 03:49:56;;;;;;;2.80;2.63;;;;;;;6.55;100.00;102185.88;10375193;28;20033;-70
2023/11/18 03:54:56;;;;;;;0.60;0.60;;;;;;;6.55;100.00;102175.13;10374733;28;20030;-70
2023/11/18 03:59:56;;;;;;;2.97;2.78;;;;;;;6.52;100.00;102156.56;10374123;28;20033;-69
2023/11/18 04:04:57;;;;;;;1.02;1.02;;;;;;;6.53;100.00;102137.56;10355332;28;20029;-70
2023/11/18 04:09:58;;;;;;;1.58;1.58;;;;;;;6.56;100.00;102146.38;10371853;28;20045;-70
2023/11/18 04:14:58;;;;;;;1.60;1.52;;;;;;;6.57;100.00;102126.53;10370933;28;20088;-69
2023/11/18 04:19:58;;;;;;;0.68;0.68;;;;;;;6.57;100.00;102113.91;10371924;28;20117;-69
2023/11/18 04:24:59;;;;;;;0.85;0.85;;;;;;;6.55;100.00;102117.75;10370346;28;20088;-70
2023/11/18 04:30:01;;;;;;;1.98;1.95;;;;;;;6.52;100.00;102116.19;10370451;28;20037;-70
2023/11/18 04:35:06;;;;;;;1.23;1.23;;;;;;;6.56;100.00;102122.16;10385760;28;20125;-70
2023/11/18 04:40:09;;;;;;;1.08;1.08;;;;;;;6.55;100.00;102104.31;10355761;28;20090;-70
2023/11/18 04:45:09;;;;;;;0.60;0.60;;;;;;;6.56;100.00;102100.63;10356174;28;20565;-70
2023/11/18 04:50:10;;;;;;;1.42;1.42;;;;;;;6.64;100.00;102096.22;10369340;28;20088;-70
2023/11/18 04:55:13;;;;;;;1.02;1.02;;;;;;;6.59;100.00;102081.50;10369391;28;20046;-70
2023/11/18 05:00:16;;;;;;;0.60;0.60;;;;;;;6.56;100.00;102074.53;10354571;28;20465;-70
2023/11/18 05:05:17;;;;;;;1.45;1.45;;;;;;;6.56;100.00;102074.53;10370948;28;20040;-71
2023/11/18 05:10:18;;;;;;;0.70;0.70;;;;;;;6.49;100.00;102063.50;10371222;28;20030;-70
2023/11/18 05:15:20;;;;;;;1.15;1.15;;;;;;;6.52;100.00;102065.91;10370159;28;20057;-70
2023/11/18 05:20:22;;;;;;;4.47;1.95;;;;;;;6.50;100.00;102061.66;10354489;28;20085;-69
2023/11/18 05:25:22;;;;;;;1.42;1.42;;;;;;;6.51;100.00;102049.94;10353783;28;20038;-69
2023/11/18 05:30:23;;;;;;;1.35;1.35;;;;;;;6.47;100.00;102041.25;10353213;28;20089;-70
2023/11/18 05:35:28;;;;;;;0.70;0.70;;;;;;;6.50;100.00;102034.75;10374194;28;20428;-69
2023/11/18 05:40:29;;;;;;;0.50;0.50;;;;;;;6.55;100.00;102032.50;10378729;28;20033;-70
2023/11/18 05:45:31;;;;;;;1.90;1.80;;;;;;;6.51;100.00;102005.03;10378023;28;20112;-70
2023/11/18 05:50:32;;;;;;;1.35;1.35;;;;;;;6.47;100.00;101992.81;10360735;28;20041;-69
2023/11/18 05:55:32;;;;;;;0.50;0.50;;;;;;;6.53;100.00;102010.25;10376183;28;20069;-70
2023/11/18 06:00:33;;;;;;;1.17;1.17;;;;;;;6.61;100.00;102007.69;10392522;28;20046;-69
2023/11/18 06:05:34;;;;;;;1.85;1.75;;;;;;;6.61;100.00;101996.09;10360031;28;20042;-69
2023/11/18 06:10:35;;;;;;;2.78;2.58;;;;;;;6.56;100.00;101996.50;10375824;28;20131;-70
2023/11/18 06:15:38;;;;;;;25.23;13.45;;;;;;;6.62;100.00;101993.22;10359825;28;20163;-70
2023/11/18 06:20:38;;;;;;;20.92;14.35;;;;;;;6.63;100.00;101992.22;10376569;28;20029;-70
2023/11/18 06:25:39;;;;;;;17.98;12.35;;;;;;;6.67;100.00;101990.97;10391438;28;20041;-69
2023/11/18 06:30:40;;;;;;;14.95;8.50;;;;;;;6.70;100.00;101990.69;10374893;28;20133;-69
2023/11/18 06:35:40;;;;;;;17.08;10.75;;;;;;;6.69;100.00;101978.19;10373945;28;20050;-70
2023/11/18 06:40:41;;;;;;;20.52;10.80;;;;;;;6.71;100.00;101975.38;10373949;28;20092;-69
2023/11/18 06:45:44;;;;;;;16.90;11.50;;;;;;;6.75;100.00;101976.78;10372038;28;20062;-70
2023/11/18 06:50:45;;;;;;;19.02;12.75;;;;;;;6.70;100.00;101976.34;10391777;28;20044;-69
2023/11/18 06:55:45;;;;;;;18.48;8.43;;;;;;;6.73;100.00;101979.63;10373828;28;20058;-69
2023/11/18 07:00:48;;;;;;;15.70;11.20;;;;;;;6.72;100.00;101974.38;10375098;28;20053;-69
2023/11/18 07:05:49;;;;;;;15.55;11.23;;;;;;;6.72;100.00;101979.75;10375804;28;20041;-70
2023/11/18 07:10:49;;;;;;;28.23;12.02;;;;;;;6.75;100.00;101985.69;10375843;28;20068;-69
2023/11/18 07:15:50;;;;;;;17.58;11.13;;;;;;;6.81;100.00;101992.34;10377445;28;20044;-70
2023/11/18 07:20:52;;;;;;;17.88;11.57;;;;;;;6.77;100.00;101990.94;10373766;28;20439;-69
2023/11/18 07:25:53;;;;;;;16.25;11.63;;;;;;;6.74;100.00;101985.84;10371908;28;20061;-70
2023/11/18 07:30:53;;;;;;;17.73;10.50;;;;;;;6.69;100.00;101991.66;10373888;28;20137;-70
2023/11/18 07:35:54;;;;;;;19.20;10.68;;;;;;;6.71;100.00;101978.06;10372202;28;20384;-70
2023/11/18 07:40:56;;;;;;;22.40;10.15;;;;;;;6.81;100.00;101965.41;10373767;28;20081;-69
2023/11/18 07:45:56;;;;;;;15.82;8.00;;;;;;;6.78;100.00;101956.78;10373210;28;20397;-70
2023/11/18 07:50:57;;;;;;;18.00;8.65;;;;;;;6.74;100.00;101942.78;10373657;28;20043;-69
2023/11/18 07:55:57;;;;;;;13.60;9.15;;;;;;;6.75;100.00;101939.94;10371283;28;20049;-70
2023/11/18 08:00:59;;;;;;;13.15;10.00;;;;;;;6.68;100.00;101933.44;10371151;28;20064;-69
2023/11/18 08:05:59;;;;;;;15.13;8.98;;;;;;;6.73;100.00;101947.31;10370672;28;20038;-69
2023/11/18 08:11:00;;;;;;;8.90;7.70;;;;;;;6.73;100.00;101941.94;10354864;28;20132;-70
2023/11/18 08:16:01;;;;;;;27.25;8.55;;;;;;;6.69;100.00;101932.44;10370791;28;20038;-69
2023/11/18 08:21:02;;;;;;;11.05;8.35;;;;;;;6.67;100.00;101952.44;10371705;28;20407;-70
2023/11/18 08:26:05;;;;;;;23.38;8.77;;;;;;;6.73;100.00;101941.06;10387396;28;20045;-70
2023/11/18 08:31:06;;;;;;;20.88;9.10;;;;;;;6.63;100.00;101918.72;10386671;28;20083;-71
2023/11/18 08:36:07;;;;;;;0.80;0.80;;;;;;;6.58;100.00;101897.66;10372362;28;20033;-70
2023/11/18 08:41:09;;;;;;;10.82;2.05;;;;;;;6.62;100.00;101890.13;10369636;28;20492;-70
2023/11/18 08:46:09;;;;;;;2.78;2.67;;;;;;;6.52;100.00;101882.09;10355042;28;20062;-70
2023/11/18 08:51:12;;;;;;;2.20;1.45;;;;;;;6.50;100.00;101873.28;10371177;28;20064;-70
2023/11/18 08:56:15;;;;;;;2.15;2.05;;;;;;;6.58;100.00;101873.44;10370212;28;20500;-71
2023/11/18 09:01:16;;;;;;;0.63;0.63;;;;;;;6.64;100.00;101840.53;10369866;28;20048;-70
2023/11/18 09:06:25;;;;;;;1.63;1.55;;;;;;;6.73;100.00;101845.03;10369566;28;20192;-70
2023/11/18 09:11:32;;;;;;;0.60;0.60;;;;;;;6.84;100.00;101810.81;10376229;28;20140;-70
2023/11/18 09:16:38;;;;;;;0.60;0.60;;;;;;;6.92;100.00;101817.16;10363924;28;20038;-70
2023/11/18 09:21:39;;;;;;;0.60;0.60;;;;;;;6.89;100.00;101800.44;10347789;28;20040;-70
2023/11/18 09:26:40;;;;;;;0.63;0.63;;;;;;;6.94;100.00;101803.53;10377622;28;20061;-70
2023/11/18 09:31:41;;;;;;;0.80;0.80;;;;;;;7.01;100.00;101793.84;10362070;28;20388;-70
2023/11/18 09:36:43;;;;;;;0.50;0.50;;;;;;;6.98;100.00;101794.13;10363943;28;20037;-70
2023/11/18 09:41:43;;;;;;;0.57;0.57;;;;;;;7.08;100.00;101783.28;10379446;28;20098;-70
2023/11/18 09:46:44;;;;;;;0.50;0.50;;;;;;;7.12;100.00;101773.94;10379156;28;20446;-69
2023/11/18 09:51:47;;;;;;;0.60;0.60;;;;;;;7.15;100.00;101769.09;10360397;28;20199;-71
2023/11/18 09:57:08;;;;;;;0.50;0.50;;;;;;;7.15;100.00;101762.84;10378018;28;20061;-70
2023/11/18 10:02:10;;;;;;;0.50;0.50;;;;;;;7.16;100.00;101764.53;10361733;28;20041;-70
2023/11/18 10:07:11;;;;;;;1.48;1.42;;;;;;;7.23;100.00;101771.84;10359386;28;20099;-69
2023/11/18 10:12:16;;;;;;;0.80;0.80;;;;;;;7.24;100.00;101786.16;10375419;28;20100;-70
2023/11/18 10:17:17;;;;;;;0.50;0.50;;;;;;;7.16;100.00;101756.44;10359440;28;20424;-70
2023/11/18 10:22:26;;;;;;;8.73;1.73;;;;;;;7.18;100.00;101728.38;10375615;28;20038;-69
2023/11/18 10:27:27;;;;;;;3.13;2.78;;;;;;;7.20;100.00;101728.19;10376433;28;20030;-69
2023/11/18 10:32:27;;;;;;;0.50;0.50;;;;;;;7.19;100.00;101732.75;10375786;28;20095;-69
2023/11/18 10:37:30;;;;;;;0.60;0.60;;;;;;;7.25;100.00;101728.59;10375319;28;20408;-70
2023/11/18 10:42:32;;;;;;;1.42;1.42;;;;;;;7.28;100.00;101705.88;10374510;28;20026;-69
2023/11/18 10:47:35;;;;;;;0.77;0.77;;;;;;;7.32;100.00;101665.00;10375236;28;20038;-72
2023/11/18 10:52:40;;;;;;;3.58;3.33;;;;;;;7.28;100.00;101623.22;10375179;28;20095;-70
2023/11/18 10:57:41;;;;;;;1.60;1.50;;;;;;;7.38;100.00;101594.31;10374635;28;20050;-70
2023/11/18 11:02:42;;;;;;;0.80;0.80;;;;;;;7.46;100.00;101571.94;10357211;28;20056;-71
2023/11/18 11:07:44;;;;;;;0.85;0.85;;;;;;;7.46;100.00;101561.16;10375225;28;20037;-71
2023/11/18 11:12:52;;;;;;;0.60;0.60;;;;;;;7.47;100.00;101562.88;10373808;28;20045;-71
2023/11/18 11:17:55;;;;;;;0.50;0.50;;;;;;;7.53;100.00;101529.88;10356236;28;20042;-72
2023/11/18 11:23:10;;;;;;;0.63;0.63;;;;;;;7.58;100.00;101510.53;10358162;28;20036;-71
2023/11/18 11:28:13;;;;;;;0.50;0.50;;;;;;;7.58;100.00;101464.69;10357223;28;20038;-70
2023/11/18 11:33:40;;;;;;;0.50;0.50;;;;;;;7.59;100.00;101439.44;10338884;28;20084;-72
2023/11/18 11:38:43;;;;;;;0.40;0.40;;;;;;;7.72;100.00;101436.25;10373351;28;20034;-72
2023/11/18 11:43:43;;;;;;;0.50;0.50;;;;;;;7.69;100.00;101430.19;10371479;28;20397;-71
2023/11/18 11:48:47;;;;;;;0.40;0.40;;;;;;;7.77;100.00;101452.78;10354989;28;20049;-71
2023/11/18 11:53:52;;;;;;;0.60;0.60;;;;;;;7.68;100.00;101423.09;10355451;28;20069;-71
2023/11/18 11:58:53;;;;;;;0.45;0.45;;;;;;;7.68;100.00;101409.63;10371589;28;20054;-71
2023/11/18 12:03:57;;;;;;;0.65;0.65;;;;;;;7.60;100.00;101425.78;10371313;28;20042;-72
2023/11/18 12:08:58;;;;;;;0.45;0.45;;;;;;;7.66;100.00;101465.56;10355073;28;20076;-71
2023/11/18 12:19:36;;;;;;;0.63;0.63;;;;;;;7.62;100.00;101382.50;10372763;28;20034;-72
2023/11/18 12:24:37;;;;;;;0.43;0.43;;;;;;;7.66;100.00;101360.44;10372777;28;20472;-72
2023/11/18 12:29:43;;;;;;;0.43;0.43;;;;;;;7.70;100.00;101363.66;10371334;28;20037;-72
2023/11/18 12:34:53;;;;;;;0.85;0.85;;;;;;;7.77;100.00;101345.78;10353585;28;20057;-71
2023/11/18 12:40:35;;;;;;;0.50;0.50;;;;;;;7.79;100.00;101338.38;10370039;28;20030;-73
2023/11/18 12:45:50;;;;;;;0.50;0.50;;;;;;;7.68;100.00;101328.75;10353396;28;20470;-73
2023/11/18 12:50:51;;;;;;;0.50;0.50;;;;;;;7.65;100.00;101287.81;10371414;28;20069;-73
2023/11/18 12:55:52;;;;;;;0.50;0.50;;;;;;;7.70;100.00;101293.56;10371031;28;20085;-72
2023/11/18 13:00:53;;;;;;;0.50;0.50;;;;;;;7.78;100.00;101263.03;10355187;28;20045;-72
2023/11/18 13:05:53;;;;;;;0.40;0.40;;;;;;;7.75;100.00;101269.63;10353603;28;20098;-73
2023/11/18 13:10:54;;;;;;;0.50;0.50;;;;;;;7.78;100.00;101269.28;10351992;28;20519;-73
2023/11/18 13:15:54;;;;;;;0.55;0.55;;;;;;;7.83;100.00;101245.34;10370389;28;20124;-73
2023/11/18 13:20:57;;;;;;;0.55;0.55;;;;;;;7.86;100.00;101233.38;10369331;28;20496;-72
2023/11/18 13:25:59;;;;;;;0.47;0.47;;;;;;;7.86;100.00;101217.22;10352770;28;20030;-73
2023/11/18 13:31:01;;;;;;;2.38;1.58;;;;;;;7.89;100.00;101204.22;10352741;28;20034;-72
2023/11/18 13:36:05;;;;;;;0.40;0.40;;;;;;;7.95;100.00;101196.47;10353472;28;20119;-75
2023/11/18 13:41:08;;;;;;;0.35;0.35;;;;;;;7.95;100.00;101202.69;10353149;28;20488;-71
2023/11/18 13:46:18;;;;;;;1.15;1.15;;;;;;;8.01;100.00;101199.31;10368715;28;20076;-71
2023/11/18 13:51:19;;;;;;;0.45;0.45;;;;;;;8.03;100.00;101183.78;10371306;28;20038;-72
2023/11/18 13:56:20;;;;;;;0.57;0.57;;;;;;;8.11;100.00;101151.41;10372332;28;20072;-74
2023/11/18 14:01:21;;;;;;;0.40;0.40;;;;;;;8.14;100.00;101155.59;10376478;28;20455;-73
2023/11/18 14:06:22;;;;;;;0.43;0.43;;;;;;;8.15;100.00;101130.31;10376376;28;20454;-71
2023/11/18 14:11:24;;;;;;;0.40;0.40;;;;;;;8.21;100.00;101135.00;10376265;28;20064;-74
2023/11/18 14:16:26;;;;;;;0.40;0.40;;;;;;;8.21;100.00;101116.09;10358994;28;20510;-74
2023/11/18 14:21:26;;;;;;;0.40;0.40;;;;;;;8.27;100.00;101122.66;10375793;28;20116;-72
2023/11/18 14:26:27;;;;;;;0.40;0.40;;;;;;;8.33;100.00;101116.56;10375357;28;20116;-72
2023/11/18 14:31:28;;;;;;;0.40;0.40;;;;;;;8.34;100.00;101112.84;10375110;28;20030;-73
2023/11/18 14:36:29;;;;;;;0.50;0.50;;;;;;;8.40;100.00;101100.53;10376765;28;20042;-70
2023/11/18 14:41:31;;;;;;;0.40;0.40;;;;;;;8.49;100.00;101094.91;10375005;28;20030;-71
2023/11/18 14:46:31;;;;;;;0.50;0.50;;;;;;;8.51;100.00;101071.25;10358312;28;20032;-71
2023/11/18 14:51:32;;;;;;;0.50;0.50;;;;;;;8.55;100.00;101058.22;10374652;28;20061;-72
2023/11/18 14:56:32;;;;;;;1.08;1.08;;;;;;;8.62;100.00;101061.91;10375806;28;20085;-73
2023/11/18 15:01:33;;;;;;;0.40;0.40;;;;;;;8.68;100.00;101044.13;10357666;28;20102;-71
2023/11/18 15:06:33;;;;;;;0.40;0.40;;;;;;;8.80;100.00;101050.78;10357020;28;20046;-71
2023/11/18 15:11:34;;;;;;;0.50;0.50;;;;;;;8.85;100.00;101046.50;10390710;28;20057;-71
2023/11/18 15:16:34;;;;;;;0.40;0.40;;;;;;;8.90;100.00;101005.44;10375160;28;20041;-72
2023/11/18 15:21:35;;;;;;;0.40;0.40;;;;;;;8.94;100.00;101006.78;10374587;28;20103;-74
2023/11/18 15:26:36;;;;;;;0.50;0.50;;;;;;;9.02;100.00;101014.78;10376208;28;20153;-73
2023/11/18 15:31:36;;;;;;;0.40;0.40;;;;;;;9.02;100.00;100979.66;10370522;28;20030;-73
2023/11/18 15:36:42;;;;;;;0.55;0.55;;;;;;;9.10;100.00;101008.47;10373733;28;20065;-72
2023/11/18 15:41:43;;;;;;;0.40;0.40;;;;;;;9.06;100.00;100981.00;10373099;28;20160;-71
2023/11/18 15:46:47;;;;;;;0.52;0.52;;;;;;;9.14;100.00;100963.00;10372612;28;20111;-70
2023/11/18 15:51:48;;;;;;;0.50;0.50;;;;;;;9.14;100.00;100953.03;10372376;28;20525;-72
2023/11/18 15:56:48;;;;;;;0.50;0.50;;;;;;;9.21;100.00;100920.69;10371538;28;20046;-70
2023/11/18 16:01:49;;;;;;;0.45;0.45;;;;;;;9.29;100.00;100948.47;10372379;28;20046;-71
2023/11/18 16:06:50;;;;;;;0.40;0.40;;;;;;;9.44;100.00;100931.38;10354355;28;20052;-71
2023/11/18 16:11:50;;;;;;;0.40;0.40;;;;;;;9.53;100.00;100928.38;10388238;28;20132;-71
2023/11/18 16:16:51;;;;;;;1.35;1.35;;;;;;;9.59;100.00;100936.75;10371433;28;20049;-71
2023/11/18 16:21:53;;;;;;;0.60;0.60;;;;;;;9.67;100.00;100931.25;10337307;28;20053;-70
2023/11/18 16:26:53;;;;;;;0.30;0.30;;;;;;;9.71;100.00;100948.75;10372364;28;20084;-70
2023/11/18 16:31:55;;;;;;;0.50;0.50;;;;;;;9.85;100.00;100937.03;10371089;28;20381;-71
2023/11/18 16:36:59;;;;;;;0.30;0.30;;;;;;;9.97;100.00;100948.19;10371304;28;20349;-72
2023/11/18 16:42:00;;;;;;;0.50;0.50;;;;;;;10.12;100.00;100929.22;10369576;28;20444;-71
2023/11/18 16:47:00;;;;;;;0.60;0.60;;;;;;;10.13;100.00;100920.88;10369977;28;20034;-71
2023/11/18 16:52:03;;;;;;;0.47;0.47;;;;;;;10.31;100.00;100920.47;10370049;28;20508;-72
2023/11/18 16:57:05;;;;;;;0.68;0.68;;;;;;;10.47;100.00;100933.72;10369976;28;20168;-72
2023/11/18 17:02:05;;;;;;;0.50;0.50;;;;;;;10.60;100.00;100932.16;10370194;28;20468;-73
2023/11/18 17:07:06;;;;;;;0.90;0.90;;;;;;;10.75;100.00;100940.16;10372028;28;20038;-71
2023/11/18 17:12:07;;;;;;;0.50;0.50;;;;;;;10.86;100.00;100926.06;10354529;28;20132;-71
2023/11/18 17:17:08;;;;;;;1.25;1.25;;;;;;;10.97;100.00;100914.66;10368763;28;20150;-72
2023/11/18 17:22:10;;;;;;;0.55;0.55;;;;;;;11.06;100.00;100926.19;10337363;28;20176;-71
2023/11/18 17:27:11;;;;;;;0.52;0.52;;;;;;;11.14;100.00;100921.44;10370706;28;20084;-70
2023/11/18 17:32:12;;;;;;;1.25;1.25;;;;;;;11.22;100.00;100920.44;10374047;28;20416;-72
2023/11/18 17:37:12;;;;;;;0.80;0.80;;;;;;;11.28;100.00;100913.38;10361026;28;20048;-71
2023/11/18 17:42:13;;;;;;;0.60;0.60;;;;;;;11.29;100.00;100907.72;10376325;28;20104;-71
2023/11/18 17:47:13;;;;;;;1.13;1.13;;;;;;;11.31;100.00;100921.09;10360264;28;20151;-71
2023/11/18 17:52:14;;;;;;;0.50;0.50;;;;;;;11.36;100.00;100905.06;10393991;28;20062;-72
2023/11/18 17:57:15;;;;;;;2.85;2.65;;;;;;;11.38;100.00;100892.97;10376413;28;20501;-71
2023/11/18 18:02:15;;;;;;;0.82;0.82;;;;;;;11.43;100.00;100884.25;10359202;28;20042;-71
2023/11/18 18:07:16;;;;;;;1.38;1.38;;;;;;;11.46;100.00;100866.72;10375737;28;20096;-72
2023/11/18 18:12:16;;;;;;;1.63;1.58;;;;;;;11.48;100.00;100870.06;10377820;28;20034;-71
2023/11/18 18:17:16;;;;;;;2.08;1.98;;;;;;;11.56;100.00;100895.13;10376844;28;20026;-71
2023/11/18 18:22:17;;;;;;;0.60;0.60;;;;;;;11.61;100.00;100887.22;10360355;28;20464;-73
2023/11/18 18:27:19;;;;;;;0.60;0.60;;;;;;;11.63;100.00;100876.97;10359508;28;20113;-71
2023/11/18 18:32:19;;;;;;;0.60;0.60;;;;;;;11.75;100.00;100898.94;10375019;28;20040;-73
2023/11/18 18:37:22;;;;;;;1.27;1.23;;;;;;;11.85;100.00;100904.81;10374038;28;20125;-72
2023/11/18 18:42:22;;;;;;;1.63;1.52;;;;;;;11.95;100.00;100893.56;10374944;28;20458;-71
2023/11/18 18:47:23;;;;;;;1.75;1.10;;;;;;;12.02;100.00;100894.41;10375906;28;20132;-71
2023/11/18 18:52:23;;;;;;;1.15;1.13;;;;;;;12.11;100.00;100905.91;10376052;28;20046;-72
2023/11/18 18:57:25;;;;;;;2.47;1.25;;;;;;;12.16;100.00;100887.13;10373303;28;20050;-72
2023/11/18 19:02:25;;;;;;;0.82;0.82;;;;;;;12.25;100.00;100887.72;10387949;28;20492;-72
2023/11/18 19:07:28;;;;;;;2.92;1.63;;;;;;;12.32;100.00;100873.13;10373538;28;20042;-71
2023/11/18 19:12:29;;;;;;;0.75;0.75;;;;;;;12.41;100.00;100881.91;10372894;28;20496;-71
2023/11/18 19:17:29;;;;;;;1.20;1.20;;;;;;;12.41;100.00;100860.19;10353930;28;20037;-71
2023/11/18 19:22:31;;;;;;;0.85;0.85;;;;;;;12.53;100.00;100849.47;10371324;28;20038;-72
2023/11/18 19:27:31;;;;;;;1.60;1.60;;;;;;;12.56;100.00;100863.47;10355327;28;20029;-72
2023/11/18 19:32:32;;;;;;;0.65;0.65;;;;;;;12.64;100.00;100870.59;10371823;28;20532;-71
2023/11/18 19:37:33;;;;;;;8.88;1.70;;;;;;;12.63;100.00;100851.75;10371259;28;20030;-71
2023/11/18 19:42:33;;;;;;;0.90;0.90;;;;;;;12.66;100.00;100835.88;10369984;28;20034;-71
2023/11/18 19:47:35;;;;;;;1.20;1.20;;;;;;;12.71;100.00;100830.63;10371602;28;20034;-71
2023/11/18 19:52:35;;;;;;;0.82;0.82;;;;;;;12.70;100.00;100825.41;10371486;28;20120;-71
2023/11/18 19:57:37;;;;;;;0.80;0.80;;;;;;;12.70;100.00;100815.41;10334258;28;1085919;-71
2023/11/18 20:02:38;;;;;;;1.30;1.30;;;;;;;12.68;100.00;100824.81;10389839;28;20042;-71
2023/11/18 20:07:38;;;;;;;0.60;0.60;;;;;;;12.71;100.00;100833.34;10371202;28;20030;-71
2023/11/18 20:12:39;;;;;;;1.33;1.23;;;;;;;12.74;100.00;100848.41;10372157;28;20132;-71
2023/11/18 20:17:41;;;;;;;1.35;1.20;;;;;;;12.78;100.00;100845.03;10371810;28;20057;-71
2023/11/18 20:22:41;;;;;;;0.55;0.55;;;;;;;12.84;100.00;100846.06;10370858;28;20042;-71
2023/11/18 20:27:42;;;;;;;0.50;0.50;;;;;;;12.90;100.00;100852.53;10370672;28;20393;-72
2023/11/18 20:32:43;;;;;;;0.40;0.40;;;;;;;12.88;100.00;100839.16;10370452;28;20128;-72
2023/11/18 20:37:47;;;;;;;0.60;0.60;;;;;;;12.93;100.00;100838.53;10355423;28;20477;-71
2023/11/18 20:42:49;;;;;;;2.03;1.88;;;;;;;12.98;100.00;100847.69;10370377;28;20029;-71
2023/11/18 20:47:49;;;;;;;1.48;1.38;;;;;;;12.97;100.00;100848.75;10372396;28;20040;-70
2023/11/18 20:52:51;;;;;;;23.63;6.55;;;;;;;12.94;100.00;100805.69;10371182;28;20076;-70
2023/11/18 20:57:51;;;;;;;14.95;6.20;;;;;;;12.93;100.00;100811.34;10372606;28;20073;-72
2023/11/18 21:02:52;;;;;;;12.43;6.80;;;;;;;12.98;100.00;100809.63;10354077;28;20069;-71
2023/11/18 21:07:52;;;;;;;19.50;6.57;;;;;;;12.99;100.00;100807.75;10370925;28;20061;-71
2023/11/18 21:12:52;;;;;;;25.23;7.07;;;;;;;12.98;100.00;100806.91;10371099;28;20033;-70
2023/11/18 21:17:53;;;;;;;19.52;7.00;;;;;;;13.04;100.00;100805.22;10369596;28;20030;-71
2023/11/18 21:22:54;;;;;;;20.88;5.43;;;;;;;13.02;100.00;100796.47;10353455;28;20045;-70
2023/11/18 21:27:54;;;;;;;27.02;8.15;;;;;;;13.06;100.00;100794.97;10353550;28;20045;-70
2023/11/18 21:32:58;;;;;;;22.42;7.30;;;;;;;13.06;100.00;100792.25;10371137;28;20033;-70
2023/11/18 21:37:58;;;;;;;13.60;5.20;;;;;;;13.09;100.00;100799.97;10370077;28;20543;-70
2023/11/18 21:42:59;;;;;;;17.08;5.82;;;;;;;13.07;100.00;100791.19;10369362;28;20135;-70
2023/11/18 21:48:01;;;;;;;21.20;6.03;;;;;;;13.08;100.00;100798.31;10370551;28;20040;-70
2023/11/18 21:53:02;;;;;;;12.40;5.95;;;;;;;13.13;100.00;100790.31;10368457;28;20045;-70
2023/11/18 21:58:03;;;;;;;19.65;5.88;;;;;;;13.14;100.00;100794.69;10368590;28;20450;-70
2023/11/18 22:03:03;;;;;;;8.05;5.07;;;;;;;13.22;100.00;100786.31;10370800;28;20050;-71
2023/11/18 22:08:07;;;;;;;22.85;7.32;;;;;;;13.27;100.00;100788.38;10368482;28;20049;-70
2023/11/18 22:13:07;;;;;;;16.48;5.70;;;;;;;13.28;100.00;100789.25;10368386;28;20030;-70
2023/11/18 22:18:10;;;;;;;13.40;6.10;;;;;;;13.31;100.00;100799.69;10372261;28;20057;-70
2023/11/18 22:23:11;;;;;;;17.40;5.50;;;;;;;13.29;100.00;100777.31;10358987;28;20034;-70
2023/11/18 22:28:11;;;;;;;26.40;7.68;;;;;;;13.34;100.00;100772.91;10376073;28;20030;-70
2023/11/18 22:33:13;;;;;;;14.52;6.10;;;;;;;13.29;100.00;100767.25;10377086;28;20111;-70
2023/11/18 22:38:14;;;;;;;15.05;6.15;;;;;;;13.33;100.00;100783.97;10374230;28;20414;-70
2023/11/18 22:43:14;;;;;;;12.90;5.03;;;;;;;13.35;100.00;100785.44;10375292;28;20041;-72
2023/11/18 22:48:15;;;;;;;21.83;6.60;;;;;;;13.36;100.00;100788.97;10375692;28;20038;-71
2023/11/18 22:53:17;;;;;;;16.98;6.47;;;;;;;13.35;100.00;100784.59;10375903;28;20040;-70
2023/11/18 22:58:17;;;;;;;9.13;5.25;;;;;;;13.32;100.00;100771.44;10373279;28;20099;-71
2023/11/18 23:03:18;;;;;;;35.40;6.28;;;;;;;13.34;100.00;100781.06;10376215;28;20537;-71